sensor_id;sensor_type;location;lat;lon;timestamp;pressure;altitude;pressure_sealevel;temperature
34125;BMP280;20110;53.120;5.786;2023-04-24T00:00:20;99642.22;;;17.29
34125;BMP280;20110;53.120;5.786;2023-04-24T00:02:46;99738.25;;;18.02
34125;BMP280;20110;53.120;5.786;2023-04-24T00:05:14;99732.03;;;18.00
34125;BMP280;20110;53.120;5.786;2023-04-24T00:07:44;99734.28;;;18.03
34125;BMP280;20110;53.120;5.786;2023-04-24T00:10:12;99652.56;;;17.58
34125;BMP280;20110;53.120;5.786;2023-04-24T00:12:38;99723.00;;;18.19
34125;BMP280;20110;53.120;5.786;2023-04-24T00:15:04;99692.59;;;18.02
34125;BMP280;20110;53.120;5.786;2023-04-24T00:17:31;99671.53;;;17.85
34125;BMP280;20110;53.120;5.786;2023-04-24T00:19:57;99723.81;;;18.21
34125;BMP280;20110;53.120;5.786;2023-04-24T00:22:31;99716.81;;;18.16
34125;BMP280;20110;53.120;5.786;2023-04-24T00:24:57;99691.31;;;17.92
34125;BMP280;20110;53.120;5.786;2023-04-24T00:27:23;99720.13;;;18.15
34125;BMP280;20110;53.120;5.786;2023-04-24T00:29:49;99723.00;;;18.19
34125;BMP280;20110;53.120;5.786;2023-04-24T00:32:15;99716.94;;;18.18
34125;BMP280;20110;53.120;5.786;2023-04-24T00:34:41;99714.03;;;18.14
34125;BMP280;20110;53.120;5.786;2023-04-24T00:37:07;99677.34;;;17.93
34125;BMP280;20110;53.120;5.786;2023-04-24T00:39:33;99707.59;;;18.19
34125;BMP280;20110;53.120;5.786;2023-04-24T00:41:59;99692.81;;;18.06
34125;BMP280;20110;53.120;5.786;2023-04-24T00:44:25;99686.03;;;18.05
34125;BMP280;20110;53.120;5.786;2023-04-24T00:46:51;99697.69;;;18.10
34125;BMP280;20110;53.120;5.786;2023-04-24T00:49:23;99712.13;;;18.28
34125;BMP280;20110;53.120;5.786;2023-04-24T00:51:49;99706.63;;;18.26
34125;BMP280;20110;53.120;5.786;2023-04-24T00:54:18;99693.34;;;18.17
34125;BMP280;20110;53.120;5.786;2023-04-24T00:56:44;99691.13;;;18.13
34125;BMP280;20110;53.120;5.786;2023-04-24T00:59:12;99706.50;;;18.24
34125;BMP280;20110;53.120;5.786;2023-04-24T01:01:39;99659.00;;;17.90
34125;BMP280;20110;53.120;5.786;2023-04-24T01:04:11;99686.94;;;18.10
34125;BMP280;20110;53.120;5.786;2023-04-24T01:06:39;99702.53;;;18.25
34125;BMP280;20110;53.120;5.786;2023-04-24T01:09:07;99674.81;;;18.09
34125;BMP280;20110;53.120;5.786;2023-04-24T01:11:37;99690.84;;;18.21
34125;BMP280;20110;53.120;5.786;2023-04-24T01:14:03;99691.34;;;18.17
34125;BMP280;20110;53.120;5.786;2023-04-24T01:16:29;99705.81;;;18.24
34125;BMP280;20110;53.120;5.786;2023-04-24T01:18:55;99681.56;;;18.10
34125;BMP280;20110;53.120;5.786;2023-04-24T01:21:24;99699.13;;;18.25
34125;BMP280;20110;53.120;5.786;2023-04-24T01:23:53;99690.84;;;18.21
34125;BMP280;20110;53.120;5.786;2023-04-24T01:26:19;99693.06;;;18.24
34125;BMP280;20110;53.120;5.786;2023-04-24T01:28:46;99691.91;;;18.27
34125;BMP280;20110;53.120;5.786;2023-04-24T01:31:12;99672.59;;;18.05
34125;BMP280;20110;53.120;5.786;2023-04-24T01:33:41;99692.25;;;18.22
34125;BMP280;20110;53.120;5.786;2023-04-24T01:36:10;99680.16;;;18.09
34125;BMP280;20110;53.120;5.786;2023-04-24T01:38:36;99683.41;;;18.19
34125;BMP280;20110;53.120;5.786;2023-04-24T01:41:02;99679.31;;;18.18
34125;BMP280;20110;53.120;5.786;2023-04-24T01:43:29;99665.84;;;18.04
34125;BMP280;20110;53.120;5.786;2023-04-24T01:45:55;99685.88;;;18.15
34125;BMP280;20110;53.120;5.786;2023-04-24T01:48:21;99704.06;;;18.28
34125;BMP280;20110;53.120;5.786;2023-04-24T01:50:47;99664.69;;;18.21
34125;BMP280;20110;53.120;5.786;2023-04-24T01:53:13;99658.16;;;18.24
34125;BMP280;20110;53.120;5.786;2023-04-24T01:55:40;99652.66;;;18.22
34125;BMP280;20110;53.120;5.786;2023-04-24T01:58:06;99709.03;;;18.59
34125;BMP280;20110;53.120;5.786;2023-04-24T02:00:33;99708.44;;;18.61
34125;BMP280;20110;53.120;5.786;2023-04-24T02:02:58;99666.63;;;18.32
34125;BMP280;20110;53.120;5.786;2023-04-24T02:05:24;99702.28;;;18.58
34125;BMP280;20110;53.120;5.786;2023-04-24T02:07:50;99710.09;;;18.54
34125;BMP280;20110;53.120;5.786;2023-04-24T02:10:16;99684.69;;;18.43
34125;BMP280;20110;53.120;5.786;2023-04-24T02:12:42;99686.72;;;18.31
34125;BMP280;20110;53.120;5.786;2023-04-24T02:15:08;99666.47;;;18.17
34125;BMP280;20110;53.120;5.786;2023-04-24T02:17:34;99711.78;;;18.47
34125;BMP280;20110;53.120;5.786;2023-04-24T02:20:00;99650.69;;;17.97
34125;BMP280;20110;53.120;5.786;2023-04-24T02:22:26;99711.50;;;18.30
34125;BMP280;20110;53.120;5.786;2023-04-24T02:24:52;99716.78;;;18.28
34125;BMP280;20110;53.120;5.786;2023-04-24T02:27:17;99689.44;;;18.06
34125;BMP280;20110;53.120;5.786;2023-04-24T02:29:43;99710.41;;;18.09
34125;BMP280;20110;53.120;5.786;2023-04-24T02:32:09;99728.72;;;18.13
34125;BMP280;20110;53.120;5.786;2023-04-24T02:34:38;99722.25;;;18.04
34125;BMP280;20110;53.120;5.786;2023-04-24T02:37:04;99718.06;;;17.90
34125;BMP280;20110;53.120;5.786;2023-04-24T02:39:30;99691.16;;;17.64
34125;BMP280;20110;53.120;5.786;2023-04-24T02:41:55;99711.00;;;17.71
34125;BMP280;20110;53.120;5.786;2023-04-24T02:44:21;99733.28;;;17.85
34125;BMP280;20110;53.120;5.786;2023-04-24T02:46:48;99681.66;;;17.50
34125;BMP280;20110;53.120;5.786;2023-04-24T02:49:13;99732.91;;;17.79
34125;BMP280;20110;53.120;5.786;2023-04-24T02:51:39;99693.75;;;17.51
34125;BMP280;20110;53.120;5.786;2023-04-24T02:54:08;99736.31;;;17.80
34125;BMP280;20110;53.120;5.786;2023-04-24T02:56:37;99695.41;;;17.44
34125;BMP280;20110;53.120;5.786;2023-04-24T02:59:03;99741.09;;;17.69
34125;BMP280;20110;53.120;5.786;2023-04-24T03:01:29;99731.41;;;17.64
34125;BMP280;20110;53.120;5.786;2023-04-24T03:03:55;99739.69;;;17.68
34125;BMP280;20110;53.120;5.786;2023-04-24T03:06:21;99692.03;;;17.32
34125;BMP280;20110;53.120;5.786;2023-04-24T03:08:47;99733.88;;;17.60
34125;BMP280;20110;53.120;5.786;2023-04-24T03:11:14;99731.56;;;17.55
34125;BMP280;20110;53.120;5.786;2023-04-24T03:13:39;99708.22;;;17.34
34125;BMP280;20110;53.120;5.786;2023-04-24T03:16:05;99735.84;;;17.60
34125;BMP280;20110;53.120;5.786;2023-04-24T03:18:31;99715.59;;;17.45
34125;BMP280;20110;53.120;5.786;2023-04-24T03:20:57;99740.53;;;17.59
34125;BMP280;20110;53.120;5.786;2023-04-24T03:23:23;99747.53;;;17.64
34125;BMP280;20110;53.120;5.786;2023-04-24T03:25:49;99744.03;;;17.62
34125;BMP280;20110;53.120;5.786;2023-04-24T03:28:14;99741.94;;;17.60
34125;BMP280;20110;53.120;5.786;2023-04-24T03:30:40;99743.34;;;17.61
34125;BMP280;20110;53.120;5.786;2023-04-24T03:33:06;99756.19;;;17.63
34125;BMP280;20110;53.120;5.786;2023-04-24T03:35:33;99723.63;;;17.33
34125;BMP280;20110;53.120;5.786;2023-04-24T03:37:59;99724.53;;;17.38
34125;BMP280;20110;53.120;5.786;2023-04-24T03:40:25;99736.81;;;17.41
34125;BMP280;20110;53.120;5.786;2023-04-24T03:42:51;99771.34;;;17.58
34125;BMP280;20110;53.120;5.786;2023-04-24T03:45:17;99767.75;;;17.54
34125;BMP280;20110;53.120;5.786;2023-04-24T03:47:44;99761.66;;;17.53
34125;BMP280;20110;53.120;5.786;2023-04-24T03:50:10;99733.56;;;17.31
34125;BMP280;20110;53.120;5.786;2023-04-24T03:52:36;99760.97;;;17.41
34125;BMP280;20110;53.120;5.786;2023-04-24T03:55:02;99753.34;;;17.38
34125;BMP280;20110;53.120;5.786;2023-04-24T03:57:28;99711.03;;;17.01
34125;BMP280;20110;53.120;5.786;2023-04-24T03:59:54;99775.69;;;17.40
34125;BMP280;20110;53.120;5.786;2023-04-24T04:02:20;99782.19;;;17.37
34125;BMP280;20110;53.120;5.786;2023-04-24T04:04:45;99750.06;;;17.16
34125;BMP280;20110;53.120;5.786;2023-04-24T04:07:11;99766.44;;;17.20
34125;BMP280;20110;53.120;5.786;2023-04-24T04:09:38;99779.97;;;17.22
34125;BMP280;20110;53.120;5.786;2023-04-24T04:12:04;99782.25;;;17.16
34125;BMP280;20110;53.120;5.786;2023-04-24T04:14:30;99779.03;;;17.17
34125;BMP280;20110;53.120;5.786;2023-04-24T04:16:56;99739.56;;;16.85
34125;BMP280;20110;53.120;5.786;2023-04-24T04:19:22;99774.91;;;17.05
34125;BMP280;20110;53.120;5.786;2023-04-24T04:21:47;99735.19;;;16.68
34125;BMP280;20110;53.120;5.786;2023-04-24T04:24:19;99791.72;;;17.05
34125;BMP280;20110;53.120;5.786;2023-04-24T04:26:46;99780.84;;;16.91
34125;BMP280;20110;53.120;5.786;2023-04-24T04:29:13;99789.13;;;16.96
34125;BMP280;20110;53.120;5.786;2023-04-24T04:31:39;99790.16;;;16.90
34125;BMP280;20110;53.120;5.786;2023-04-24T04:34:05;99759.41;;;16.59
34125;BMP280;20110;53.120;5.786;2023-04-24T04:36:31;99779.59;;;16.71
34125;BMP280;20110;53.120;5.786;2023-04-24T04:38:57;99813.94;;;16.84
34125;BMP280;20110;53.120;5.786;2023-04-24T04:41:24;99813.19;;;16.84
34125;BMP280;20110;53.120;5.786;2023-04-24T04:43:50;99816.34;;;16.80
34125;BMP280;20110;53.120;5.786;2023-04-24T04:46:16;99796.31;;;16.60
34125;BMP280;20110;53.120;5.786;2023-04-24T04:48:42;99811.75;;;16.71
34125;BMP280;20110;53.120;5.786;2023-04-24T04:51:08;99832.81;;;16.86
34125;BMP280;20110;53.120;5.786;2023-04-24T04:53:34;99790.97;;;16.60
34125;BMP280;20110;53.120;5.786;2023-04-24T04:56:00;99827.06;;;16.80
34125;BMP280;20110;53.120;5.786;2023-04-24T04:58:26;99842.56;;;16.82
34125;BMP280;20110;53.120;5.786;2023-04-24T05:00:52;99846.56;;;16.92
34125;BMP280;20110;53.120;5.786;2023-04-24T05:03:18;99825.41;;;16.75
34125;BMP280;20110;53.120;5.786;2023-04-24T05:05:44;99852.41;;;16.89
34125;BMP280;20110;53.120;5.786;2023-04-24T05:08:11;99858.59;;;16.91
34125;BMP280;20110;53.120;5.786;2023-04-24T05:10:37;99858.59;;;16.91
34125;BMP280;20110;53.120;5.786;2023-04-24T05:13:03;99854.38;;;16.88
34125;BMP280;20110;53.120;5.786;2023-04-24T05:15:30;99873.66;;;16.97
34125;BMP280;20110;53.120;5.786;2023-04-24T05:17:56;99868.00;;;16.92
34125;BMP280;20110;53.120;5.786;2023-04-24T05:20:22;99876.59;;;17.01
34125;BMP280;20110;53.120;5.786;2023-04-24T05:22:48;99832.50;;;16.71
34125;BMP280;20110;53.120;5.786;2023-04-24T05:25:13;99842.88;;;16.98
34125;BMP280;20110;53.120;5.786;2023-04-24T05:27:40;99832.38;;;16.69
34125;BMP280;20110;53.120;5.786;2023-04-24T05:30:07;99868.91;;;17.07
34125;BMP280;20110;53.120;5.786;2023-04-24T05:32:33;99877.66;;;17.07
34125;BMP280;20110;53.120;5.786;2023-04-24T05:34:58;99870.19;;;17.06
34125;BMP280;20110;53.120;5.786;2023-04-24T05:37:24;99900.91;;;17.26
34125;BMP280;20110;53.120;5.786;2023-04-24T05:39:51;99906.53;;;17.30
34125;BMP280;20110;53.120;5.786;2023-04-24T05:42:17;99911.66;;;17.38
34125;BMP280;20110;53.120;5.786;2023-04-24T05:44:42;99898.63;;;17.32
34125;BMP280;20110;53.120;5.786;2023-04-24T05:47:09;99925.88;;;17.50
34125;BMP280;20110;53.120;5.786;2023-04-24T05:49:34;99909.84;;;17.40
34125;BMP280;20110;53.120;5.786;2023-04-24T05:52:00;99932.28;;;17.56
34125;BMP280;20110;53.120;5.786;2023-04-24T05:54:26;99931.38;;;17.63
34125;BMP280;20110;53.120;5.786;2023-04-24T05:56:52;99941.16;;;17.70
34125;BMP280;20110;53.120;5.786;2023-04-24T05:59:19;99938.97;;;17.79
34125;BMP280;20110;53.120;5.786;2023-04-24T06:01:45;99940.50;;;17.82
34125;BMP280;20110;53.120;5.786;2023-04-24T06:04:12;99943.53;;;17.76
34125;BMP280;20110;53.120;5.786;2023-04-24T06:06:39;99950.66;;;17.72
34125;BMP280;20110;53.120;5.786;2023-04-24T06:09:05;99971.88;;;17.79
34125;BMP280;20110;53.120;5.786;2023-04-24T06:11:32;99984.41;;;17.86
34125;BMP280;20110;53.120;5.786;2023-04-24T06:13:58;99974.59;;;17.91
34125;BMP280;20110;53.120;5.786;2023-04-24T06:16:24;99971.31;;;17.81
34125;BMP280;20110;53.120;5.786;2023-04-24T06:18:49;99991.06;;;17.85
34125;BMP280;20110;53.120;5.786;2023-04-24T06:21:16;99971.50;;;17.61
34125;BMP280;20110;53.120;5.786;2023-04-24T06:23:42;100004.44;;;17.74
34125;BMP280;20110;53.120;5.786;2023-04-24T06:26:08;100005.59;;;17.70
34125;BMP280;20110;53.120;5.786;2023-04-24T06:28:34;99996.13;;;17.58
34125;BMP280;20110;53.120;5.786;2023-04-24T06:31:00;100013.25;;;17.53
34125;BMP280;20110;53.120;5.786;2023-04-24T06:33:27;99969.03;;;17.21
34125;BMP280;20110;53.120;5.786;2023-04-24T06:35:53;100020.75;;;17.54
34125;BMP280;20110;53.120;5.786;2023-04-24T06:38:18;100006.28;;;17.38
34125;BMP280;20110;53.120;5.786;2023-04-24T06:40:45;100021.59;;;17.36
34125;BMP280;20110;53.120;5.786;2023-04-24T06:43:11;99998.72;;;17.13
34125;BMP280;20110;53.120;5.786;2023-04-24T06:45:38;99999.00;;;16.96
34125;BMP280;20110;53.120;5.786;2023-04-24T06:48:05;100014.63;;;17.00
34125;BMP280;20110;53.120;5.786;2023-04-24T06:50:31;100025.31;;;17.09
34125;BMP280;20110;53.120;5.786;2023-04-24T06:52:56;99983.75;;;16.68
34125;BMP280;20110;53.120;5.786;2023-04-24T06:55:22;100006.50;;;16.88
34125;BMP280;20110;53.120;5.786;2023-04-24T06:57:48;100046.31;;;17.13
34125;BMP280;20110;53.120;5.786;2023-04-24T07:00:14;100046.56;;;17.17
34125;BMP280;20110;53.120;5.786;2023-04-24T07:02:40;100046.06;;;17.09
34125;BMP280;20110;53.120;5.786;2023-04-24T07:05:06;100046.50;;;17.05
34125;BMP280;20110;53.120;5.786;2023-04-24T07:07:33;100060.81;;;17.19
34125;BMP280;20110;53.120;5.786;2023-04-24T07:10:00;99995.84;;;16.78
34125;BMP280;20110;53.120;5.786;2023-04-24T07:12:27;100031.66;;;17.04
34125;BMP280;20110;53.120;5.786;2023-04-24T07:14:52;100044.38;;;17.04
34125;BMP280;20110;53.120;5.786;2023-04-24T07:17:18;100069.94;;;17.26
34125;BMP280;20110;53.120;5.786;2023-04-24T07:19:44;100071.91;;;17.25
34125;BMP280;20110;53.120;5.786;2023-04-24T07:22:10;100057.34;;;17.07
34125;BMP280;20110;53.120;5.786;2023-04-24T07:24:43;100052.47;;;16.94
34125;BMP280;20110;53.120;5.786;2023-04-24T07:27:09;100062.72;;;17.07
34125;BMP280;20110;53.120;5.786;2023-04-24T07:29:35;100087.44;;;17.06
34125;BMP280;20110;53.120;5.786;2023-04-24T07:32:01;100110.97;;;17.17
34125;BMP280;20110;53.120;5.786;2023-04-24T07:34:28;100090.09;;;17.06
34125;BMP280;20110;53.120;5.786;2023-04-24T07:36:54;100081.69;;;17.00
34125;BMP280;20110;53.120;5.786;2023-04-24T07:39:20;100073.09;;;16.91
34125;BMP280;20110;53.120;5.786;2023-04-24T07:41:46;100119.06;;;17.28
34125;BMP280;20110;53.120;5.786;2023-04-24T07:44:12;100128.34;;;17.37
34125;BMP280;20110;53.120;5.786;2023-04-24T07:46:38;100115.38;;;17.33
34125;BMP280;20110;53.120;5.786;2023-04-24T07:49:04;100141.81;;;17.49
34125;BMP280;20110;53.120;5.786;2023-04-24T07:51:30;100097.34;;;17.24
34125;BMP280;20110;53.120;5.786;2023-04-24T07:53:56;100136.22;;;17.66
34125;BMP280;20110;53.120;5.786;2023-04-24T07:56:22;100119.16;;;17.61
34125;BMP280;20110;53.120;5.786;2023-04-24T07:58:48;100116.22;;;17.90
34125;BMP280;20110;53.120;5.786;2023-04-24T08:01:14;100144.63;;;18.26
34125;BMP280;20110;53.120;5.786;2023-04-24T08:03:39;100109.78;;;18.17
34125;BMP280;20110;53.120;5.786;2023-04-24T08:06:06;100072.72;;;18.03
34125;BMP280;20110;53.120;5.786;2023-04-24T08:08:31;100175.78;;;18.76
34125;BMP280;20110;53.120;5.786;2023-04-24T08:10:58;100163.84;;;18.56
34125;BMP280;20110;53.120;5.786;2023-04-24T08:13:23;100190.97;;;18.60
34125;BMP280;20110;53.120;5.786;2023-04-24T08:15:49;100166.59;;;18.34
34125;BMP280;20110;53.120;5.786;2023-04-24T08:18:15;100185.56;;;18.36
34125;BMP280;20110;53.120;5.786;2023-04-24T08:20:42;100190.31;;;18.26
34125;BMP280;20110;53.120;5.786;2023-04-24T08:23:08;100194.38;;;18.16
34125;BMP280;20110;53.120;5.786;2023-04-24T08:25:34;100188.22;;;18.03
34125;BMP280;20110;53.120;5.786;2023-04-24T08:28:03;100195.03;;;18.04
34125;BMP280;20110;53.120;5.786;2023-04-24T08:30:29;100204.06;;;18.21
34125;BMP280;20110;53.120;5.786;2023-04-24T08:32:56;100209.28;;;18.40
34125;BMP280;20110;53.120;5.786;2023-04-24T08:35:22;100203.94;;;18.52
34125;BMP280;20110;53.120;5.786;2023-04-24T08:37:48;100216.97;;;18.78
34125;BMP280;20110;53.120;5.786;2023-04-24T08:40:16;100223.78;;;19.03
34125;BMP280;20110;53.120;5.786;2023-04-24T08:42:45;100211.84;;;19.06
34125;BMP280;20110;53.120;5.786;2023-04-24T08:45:12;100218.59;;;19.30
34125;BMP280;20110;53.120;5.786;2023-04-24T08:47:40;100190.66;;;19.23
34125;BMP280;20110;53.120;5.786;2023-04-24T08:50:07;100238.13;;;19.65
34125;BMP280;20110;53.120;5.786;2023-04-24T08:52:34;100233.13;;;19.85
34125;BMP280;20110;53.120;5.786;2023-04-24T08:55:01;100248.88;;;20.14
34125;BMP280;20110;53.120;5.786;2023-04-24T08:57:28;100220.50;;;20.13
34125;BMP280;20110;53.120;5.786;2023-04-24T08:59:57;100209.22;;;20.17
34125;BMP280;20110;53.120;5.786;2023-04-24T09:02:23;100228.91;;;20.58
34125;BMP280;20110;53.120;5.786;2023-04-24T09:04:51;100221.09;;;20.89
34125;BMP280;20110;53.120;5.786;2023-04-24T09:07:19;100249.47;;;21.04
34125;BMP280;20110;53.120;5.786;2023-04-24T09:09:45;100254.09;;;21.02
34125;BMP280;20110;53.120;5.786;2023-04-24T09:12:12;100263.84;;;20.81
34125;BMP280;20110;53.120;5.786;2023-04-24T09:14:38;100241.22;;;20.22
34125;BMP280;20110;53.120;5.786;2023-04-24T09:17:08;100264.28;;;20.00
34125;BMP280;20110;53.120;5.786;2023-04-24T09:19:34;100275.25;;;19.67
34125;BMP280;20110;53.120;5.786;2023-04-24T09:22:04;100279.00;;;19.50
34125;BMP280;20110;53.120;5.786;2023-04-24T09:24:31;100294.47;;;19.26
34125;BMP280;20110;53.120;5.786;2023-04-24T09:26:58;100274.19;;;18.91
34125;BMP280;20110;53.120;5.786;2023-04-24T09:29:29;100295.03;;;19.02
34125;BMP280;20110;53.120;5.786;2023-04-24T09:31:55;100271.09;;;18.73
34125;BMP280;20110;53.120;5.786;2023-04-24T09:34:26;100260.34;;;18.40
34125;BMP280;20110;53.120;5.786;2023-04-24T09:36:54;100262.75;;;18.24
34125;BMP280;20110;53.120;5.786;2023-04-24T09:39:19;100283.28;;;18.20
34125;BMP280;20110;53.120;5.786;2023-04-24T09:41:51;100275.63;;;18.04
34125;BMP280;20110;53.120;5.786;2023-04-24T09:44:27;100306.13;;;18.30
34125;BMP280;20110;53.120;5.786;2023-04-24T09:46:59;100303.41;;;18.52
34125;BMP280;20110;53.120;5.786;2023-04-24T09:49:30;100286.94;;;18.24
34125;BMP280;20110;53.120;5.786;2023-04-24T09:52:06;100334.44;;;18.64
34125;BMP280;20110;53.120;5.786;2023-04-24T09:54:32;100248.69;;;18.14
34125;BMP280;20110;53.120;5.786;2023-04-24T09:56:58;100342.63;;;18.66
34125;BMP280;20110;53.120;5.786;2023-04-24T09:59:26;100332.78;;;18.59
34125;BMP280;20110;53.120;5.786;2023-04-24T10:01:51;100319.69;;;18.54
34125;BMP280;20110;53.120;5.786;2023-04-24T10:04:23;100346.41;;;18.73
34125;BMP280;20110;53.120;5.786;2023-04-24T10:06:52;100361.41;;;18.87
34125;BMP280;20110;53.120;5.786;2023-04-24T10:09:25;100364.50;;;19.05
34125;BMP280;20110;53.120;5.786;2023-04-24T10:11:53;100362.75;;;19.10
34125;BMP280;20110;53.120;5.786;2023-04-24T10:14:23;100341.69;;;18.95
34125;BMP280;20110;53.120;5.786;2023-04-24T10:16:53;100327.66;;;19.08
34125;BMP280;20110;53.120;5.786;2023-04-24T10:19:18;100387.19;;;19.70
34125;BMP280;20110;53.120;5.786;2023-04-24T10:21:45;100343.41;;;19.58
34125;BMP280;20110;53.120;5.786;2023-04-24T10:24:17;100388.59;;;19.59
34125;BMP280;20110;53.120;5.786;2023-04-24T10:26:45;100371.72;;;19.36
34125;BMP280;20110;53.120;5.786;2023-04-24T10:29:14;100380.50;;;19.36
34125;BMP280;20110;53.120;5.786;2023-04-24T10:31:41;100381.66;;;19.45
34125;BMP280;20110;53.120;5.786;2023-04-24T10:34:09;100381.91;;;19.60
34125;BMP280;20110;53.120;5.786;2023-04-24T10:36:41;100383.78;;;19.69
34125;BMP280;20110;53.120;5.786;2023-04-24T10:39:12;100396.06;;;19.73
34125;BMP280;20110;53.120;5.786;2023-04-24T10:41:38;100361.28;;;19.30
34125;BMP280;20110;53.120;5.786;2023-04-24T10:44:13;100407.03;;;19.18
34125;BMP280;20110;53.120;5.786;2023-04-24T10:46:44;100399.97;;;19.02
34125;BMP280;20110;53.120;5.786;2023-04-24T10:49:11;100404.28;;;18.74
34125;BMP280;20110;53.120;5.786;2023-04-24T10:51:50;100405.59;;;18.21
34125;BMP280;20110;53.120;5.786;2023-04-24T10:54:27;100417.41;;;17.75
34125;BMP280;20110;53.120;5.786;2023-04-24T11:00:09;100428.06;;;17.54
34125;BMP280;20110;53.120;5.786;2023-04-24T11:02:39;100418.81;;;17.76
34125;BMP280;20110;53.120;5.786;2023-04-24T11:05:07;100413.31;;;17.74
34125;BMP280;20110;53.120;5.786;2023-04-24T11:08:11;100436.31;;;18.18
34125;BMP280;20110;53.120;5.786;2023-04-24T11:10:56;100434.84;;;18.57
34125;BMP280;20110;53.120;5.786;2023-04-24T11:13:25;100438.50;;;18.83
34125;BMP280;20110;53.120;5.786;2023-04-24T11:16:51;100394.13;;;18.51
34125;BMP280;20110;53.120;5.786;2023-04-24T11:32:37;100446.22;;;20.13
34125;BMP280;20110;53.120;5.786;2023-04-24T11:35:15;100449.28;;;20.30
34125;BMP280;20110;53.120;5.786;2023-04-24T11:37:45;100421.72;;;20.20
34125;BMP280;20110;53.120;5.786;2023-04-24T11:40:13;100433.78;;;20.42
34125;BMP280;20110;53.120;5.786;2023-04-24T11:42:45;100456.25;;;20.47
34125;BMP280;20110;53.120;5.786;2023-04-24T11:45:21;100465.44;;;20.30
34125;BMP280;20110;53.120;5.786;2023-04-24T11:47:48;100435.44;;;20.01
34125;BMP280;20110;53.120;5.786;2023-04-24T11:50:17;100450.56;;;19.71
34125;BMP280;20110;53.120;5.786;2023-04-24T11:52:46;100458.44;;;19.22
34125;BMP280;20110;53.120;5.786;2023-04-24T11:57:59;100449.41;;;18.97
34125;BMP280;20110;53.120;5.786;2023-04-24T12:00:30;100466.97;;;19.30
34125;BMP280;20110;53.120;5.786;2023-04-24T12:03:10;100460.41;;;19.78
34125;BMP280;20110;53.120;5.786;2023-04-24T12:05:37;100472.69;;;20.28
34125;BMP280;20110;53.120;5.786;2023-04-24T12:08:04;100495.50;;;20.62
34125;BMP280;20110;53.120;5.786;2023-04-24T12:10:33;100484.03;;;20.49
34125;BMP280;20110;53.120;5.786;2023-04-24T12:13:00;100455.94;;;20.18
34125;BMP280;20110;53.120;5.786;2023-04-24T12:15:27;100433.81;;;19.96
34125;BMP280;20110;53.120;5.786;2023-04-24T12:17:54;100462.25;;;20.45
34125;BMP280;20110;53.120;5.786;2023-04-24T12:20:40;100475.13;;;20.96
34125;BMP280;20110;53.120;5.786;2023-04-24T12:23:06;100473.84;;;20.85
34125;BMP280;20110;53.120;5.786;2023-04-24T12:25:32;100492.75;;;20.85
34125;BMP280;20110;53.120;5.786;2023-04-24T12:30:39;100485.09;;;20.44
34125;BMP280;20110;53.120;5.786;2023-04-24T12:33:05;100461.09;;;20.14
34125;BMP280;20110;53.120;5.786;2023-04-24T12:35:33;100500.13;;;20.24
34125;BMP280;20110;53.120;5.786;2023-04-24T12:38:13;100516.78;;;20.21
34125;BMP280;20110;53.120;5.786;2023-04-24T12:40:41;100499.78;;;19.95
34125;BMP280;20110;53.120;5.786;2023-04-24T12:43:14;100478.44;;;19.76
34125;BMP280;20110;53.120;5.786;2023-04-24T12:45:41;100516.44;;;20.15
34125;BMP280;20110;53.120;5.786;2023-04-24T12:48:07;100499.66;;;20.28
34125;BMP280;20110;53.120;5.786;2023-04-24T12:50:33;100453.13;;;19.92
34125;BMP280;20110;53.120;5.786;2023-04-24T12:52:59;100525.81;;;20.25
34125;BMP280;20110;53.120;5.786;2023-04-24T12:55:25;100510.09;;;19.98
34125;BMP280;20110;53.120;5.786;2023-04-24T12:57:51;100440.41;;;19.37
34125;BMP280;20110;53.120;5.786;2023-04-24T13:00:18;100525.44;;;20.07
34125;BMP280;20110;53.120;5.786;2023-04-24T13:02:44;100518.41;;;20.02
34125;BMP280;20110;53.120;5.786;2023-04-24T13:05:10;100528.97;;;20.22
34125;BMP280;20110;53.120;5.786;2023-04-24T13:07:37;100491.78;;;19.74
34125;BMP280;20110;53.120;5.786;2023-04-24T13:10:03;100525.94;;;19.48
34125;BMP280;20110;53.120;5.786;2023-04-24T13:12:29;100501.63;;;18.61
34125;BMP280;20110;53.120;5.786;2023-04-24T13:14:54;100504.84;;;18.38
34125;BMP280;20110;53.120;5.786;2023-04-24T13:17:21;100558.28;;;18.53
34125;BMP280;20110;53.120;5.786;2023-04-24T13:19:50;100498.94;;;18.20
34125;BMP280;20110;53.120;5.786;2023-04-24T13:22:17;100547.13;;;18.47
34125;BMP280;20110;53.120;5.786;2023-04-24T13:24:46;100513.03;;;18.40
34125;BMP280;20110;53.120;5.786;2023-04-24T13:27:15;100537.22;;;18.71
34125;BMP280;20110;53.120;5.786;2023-04-24T13:29:41;100515.78;;;18.61
34125;BMP280;20110;53.120;5.786;2023-04-24T13:32:08;100547.41;;;18.41
34125;BMP280;20110;53.120;5.786;2023-04-24T13:34:35;100556.16;;;17.92
34125;BMP280;20110;53.120;5.786;2023-04-24T13:37:03;100538.69;;;17.62
34125;BMP280;20110;53.120;5.786;2023-04-24T13:39:29;100557.03;;;17.37
34125;BMP280;20110;53.120;5.786;2023-04-24T13:41:55;100568.75;;;17.31
34125;BMP280;20110;53.120;5.786;2023-04-24T13:44:22;100580.34;;;17.44
34125;BMP280;20110;53.120;5.786;2023-04-24T13:46:51;100539.53;;;17.45
34125;BMP280;20110;53.120;5.786;2023-04-24T13:49:21;100524.09;;;17.26
34125;BMP280;20110;53.120;5.786;2023-04-24T13:51:48;100557.72;;;17.18
34125;BMP280;20110;53.120;5.786;2023-04-24T13:54:13;100560.41;;;17.18
34125;BMP280;20110;53.120;5.786;2023-04-24T13:56:42;100557.81;;;17.01
34125;BMP280;20110;53.120;5.786;2023-04-24T13:59:09;100568.09;;;16.94
34125;BMP280;20110;53.120;5.786;2023-04-24T14:01:35;100532.59;;;16.67
34125;BMP280;20110;53.120;5.786;2023-04-24T14:04:01;100547.50;;;16.61
34125;BMP280;20110;53.120;5.786;2023-04-24T14:06:27;100559.88;;;16.83
34125;BMP280;20110;53.120;5.786;2023-04-24T14:08:53;100540.16;;;16.98
34125;BMP280;20110;53.120;5.786;2023-04-24T14:11:19;100559.53;;;17.25
34125;BMP280;20110;53.120;5.786;2023-04-24T14:13:46;100540.38;;;17.19
34125;BMP280;20110;53.120;5.786;2023-04-24T14:16:12;100568.88;;;17.33
34125;BMP280;20110;53.120;5.786;2023-04-24T14:18:38;100564.06;;;17.13
34125;BMP280;20110;53.120;5.786;2023-04-24T14:21:04;100560.13;;;17.33
34125;BMP280;20110;53.120;5.786;2023-04-24T14:23:30;100514.25;;;17.39